Bright Ocean — HOGQ — position and weather

sailwx.info

Track history (hours):
 
Tides and Currents Weather Stations Pressure Air Temp Water Temp Dewpoint Dewpoint Depression Visibility Wind Speed Wind Dir Waves Ship Positions

Bright Ocean

Last reported at 2017-May-27 11:11 UTC. Time now 2017-May-27 13:48 UTC.
Position N 32°01' E 120°24'.

Length 178 m; draft 10.3 m.

Type: Cargo ship. MMSI: 373816000.

Date/timePositionNaut miles runAvg speedWind from/ knotsBaromVisibWave heightAir tempDewpointWater temp
2017-May-27 11:11N 32°01' E 120°24'311.8
2017-May-27 10:56N 32°02' E 120°27'2610.3
2017-May-27 08:28N 31°50' E 120°54'510.9
2017-May-27 07:59N 31°47' E 120°58'511.1
2017-May-27 07:30N 31°46' E 121°05'713.2
2017-May-27 07:00N 31°41' E 121°10'714.1
2017-May-27 06:31N 31°37' E 121°17'712.9
2017-May-27 06:00N 31°32' E 121°22'611.9
2017-May-27 05:30N 31°28' E 121°27'5 9.9
2017-May-27 05:00N 31°25' E 121°32'4 8.5
2017-May-27 04:30N 31°23' E 121°36'4 8.9
2017-May-27 04:00N 31°21' E 121°41'510.3
2017-May-27 03:30N 31°18' E 121°46'510.7
2017-May-27 03:00N 31°16' E 121°52'5 9.5
2017-May-27 02:30N 31°15' E 121°57'610.7
2017-May-27 01:59N 31°14' E 122°03'510.6
2017-May-27 01:30N 31°12' E 122°09'5 8.8
2017-May-27 00:59N 31°09' E 122°13'4 8.9
2017-May-27 00:30N 31°07' E 122°17'510.5
2017-May-27 00:00N 31°06' E 122°23'610.1
2017-May-26 23:26N 31°07' E 122°30'3 7.6
2017-May-26 23:00N 31°08' E 122°34'2 3.4
2017-May-26 22:30N 31°09' E 122°35'0 0.0
2017-May-26 20:11N 31°09' E 122°36'0 0.1
2017-May-26 19:56N 31°09' E 122°36'0 0.0
2017-May-26 19:26N 31°09' E 122°36'0 0.0
2017-May-26 18:11N 31°09' E 122°36'0 0.0
2017-May-26 17:56N 31°09' E 122°36'0 0.1
2017-May-26 17:29N 31°09' E 122°35'0 0.0
2017-May-26 16:50N 31°09' E 122°35'0 0.1
2017-May-26 15:59N 31°09' E 122°35'0 0.1
2017-May-26 13:53N 31°09' E 122°35'0 0.1
2017-May-26 13:29N 31°09' E 122°35'0 0.1
2017-May-26 12:47N 31°09' E 122°35'0 0.1
2017-May-26 12:26N 31°09' E 122°35'0 0.1
2017-May-26 11:53N 31°09' E 122°35'0 0.1
2017-May-26 11:23N 31°09' E 122°35'0 0.1
2017-May-26 10:59N 31°09' E 122°35'0 0.0
2017-May-26 10:17N 31°09' E 122°35'0 0.1
2017-May-26 09:41N 31°09' E 122°35'0 0.0
2017-May-26 09:29N 31°09' E 122°35'0 0.1
2017-May-26 02:12N 31°08' E 122°35'1 2.8
2017-May-26 01:55N 31°08' E 122°36'4 8.4
2017-May-26 01:24N 31°07' E 122°41'512.3
2017-May-26 01:00N 31°07' E 122°47'612.1
2017-May-26 00:28N 31°04' E 122°53'613.0
2017-May-26 00:00N 30°59' E 122°57'613.0
2017-May-25 23:30N 30°53' E 123°01'612.0
2017-May-25 23:00N 30°47' E 123°02'611.8
2017-May-25 22:30N 30°41' E 123°03'  
Track history (hours):
 
Tides and Currents Weather Stations Pressure Air Temp Water Temp Dewpoint Dewpoint Depression Visibility Wind Speed Wind Dir Waves Ship Positions

Bright Ocean

Last reported at 2017-May-27 11:11 UTC. Time now 2017-May-27 13:48 UTC.
Position N 32°01' E 120°24'.

Length 178 m; draft 10.3 m.

Type: Cargo ship. MMSI: 373816000.

Date/timePositionNaut miles runAvg speedWind from/ knotsBaromVisibWave heightAir tempDewpointWater temp
2017-May-27 11:11N 32°01' E 120°24'311.8
2017-May-27 10:56N 32°02' E 120°27'2610.3
2017-May-27 08:28N 31°50' E 120°54'510.9
2017-May-27 07:59N 31°47' E 120°58'511.1
2017-May-27 07:30N 31°46' E 121°05'713.2
2017-May-27 07:00N 31°41' E 121°10'714.1
2017-May-27 06:31N 31°37' E 121°17'712.9
2017-May-27 06:00N 31°32' E 121°22'611.9
2017-May-27 05:30N 31°28' E 121°27'5 9.9
2017-May-27 05:00N 31°25' E 121°32'4 8.5
2017-May-27 04:30N 31°23' E 121°36'4 8.9
2017-May-27 04:00N 31°21' E 121°41'510.3
2017-May-27 03:30N 31°18' E 121°46'510.7
2017-May-27 03:00N 31°16' E 121°52'5 9.5
2017-May-27 02:30N 31°15' E 121°57'610.7
2017-May-27 01:59N 31°14' E 122°03'510.6
2017-May-27 01:30N 31°12' E 122°09'5 8.8
2017-May-27 00:59N 31°09' E 122°13'4 8.9
2017-May-27 00:30N 31°07' E 122°17'510.5
2017-May-27 00:00N 31°06' E 122°23'610.1
2017-May-26 23:26N 31°07' E 122°30'3 7.6
2017-May-26 23:00N 31°08' E 122°34'2 3.4
2017-May-26 22:30N 31°09' E 122°35'0 0.0
2017-May-26 20:11N 31°09' E 122°36'0 0.1
2017-May-26 19:56N 31°09' E 122°36'0 0.0
2017-May-26 19:26N 31°09' E 122°36'0 0.0
2017-May-26 18:11N 31°09' E 122°36'0 0.0
2017-May-26 17:56N 31°09' E 122°36'0 0.1
2017-May-26 17:29N 31°09' E 122°35'0 0.0
2017-May-26 16:50N 31°09' E 122°35'0 0.1
2017-May-26 15:59N 31°09' E 122°35'0 0.1
2017-May-26 13:53N 31°09' E 122°35'0 0.1
2017-May-26 13:29N 31°09' E 122°35'0 0.1
2017-May-26 12:47N 31°09' E 122°35'0 0.1
2017-May-26 12:26N 31°09' E 122°35'0 0.1
2017-May-26 11:53N 31°09' E 122°35'0 0.1
2017-May-26 11:23N 31°09' E 122°35'0 0.1
2017-May-26 10:59N 31°09' E 122°35'0 0.0
2017-May-26 10:17N 31°09' E 122°35'0 0.1
2017-May-26 09:41N 31°09' E 122°35'0 0.0
2017-May-26 09:29N 31°09' E 122°35'0 0.1
2017-May-26 02:12N 31°08' E 122°35'1 2.8
2017-May-26 01:55N 31°08' E 122°36'4 8.4
2017-May-26 01:24N 31°07' E 122°41'512.3
2017-May-26 01:00N 31°07' E 122°47'612.1
2017-May-26 00:28N 31°04' E 122°53'613.0
2017-May-26 00:00N 30°59' E 122°57'613.0
2017-May-25 23:30N 30°53' E 123°01'612.0
2017-May-25 23:00N 30°47' E 123°02'611.8
2017-May-25 22:30N 30°41' E 123°03'  

Dump ship's entire track history